createdAt,value
2023-04-16T00:00:19.256Z,7.50
2023-04-16T00:03:21.835Z,7.50
2023-04-16T00:06:04.573Z,7.50
2023-04-16T00:08:47.384Z,7.50
2023-04-16T00:11:29.933Z,7.50
2023-04-16T00:14:12.127Z,7.50
2023-04-16T00:16:54.562Z,7.50
2023-04-16T00:19:36.850Z,7.40
2023-04-16T00:22:19.287Z,7.40
2023-04-16T00:25:01.466Z,7.40
2023-04-16T00:27:43.850Z,7.30
2023-04-16T00:30:26.125Z,7.30
2023-04-16T00:33:08.633Z,7.30
2023-04-16T00:35:51.326Z,7.30
2023-04-16T00:38:33.718Z,7.20
2023-04-16T00:41:16.500Z,7.20
2023-04-16T00:43:58.988Z,7.20
2023-04-16T00:46:42.021Z,7.20
2023-04-16T00:49:25.371Z,7.20
2023-04-16T00:52:07.700Z,7.10
2023-04-16T00:54:50.350Z,7.10
2023-04-16T00:57:32.490Z,7.10
2023-04-16T01:00:15.112Z,7.10
2023-04-16T01:02:57.425Z,7.10
2023-04-16T01:05:40.826Z,7.10
2023-04-16T01:08:23.425Z,7.10
2023-04-16T01:11:06.250Z,7.20
2023-04-16T01:13:48.490Z,7.20
2023-04-16T01:16:30.948Z,7.20
2023-04-16T01:19:13.278Z,7.10
2023-04-16T01:21:55.704Z,7.10
2023-04-16T01:24:38.320Z,7.20
2023-04-16T01:27:20.890Z,7.20
2023-04-16T01:30:04.663Z,7.20
2023-04-16T01:32:58.059Z,7.20
2023-04-16T01:35:43.493Z,7.20
2023-04-16T01:38:25.942Z,7.20
2023-04-16T01:41:08.336Z,7.20
2023-04-16T01:43:51.251Z,7.20
2023-04-16T01:46:35.244Z,7.30
2023-04-16T01:49:17.912Z,7.30
2023-04-16T01:52:00.092Z,7.20
2023-04-16T01:54:42.605Z,7.20
2023-04-16T01:57:24.763Z,7.20
2023-04-16T02:00:09.193Z,7.20
2023-04-16T02:03:00.774Z,7.10
2023-04-16T02:05:44.275Z,7.20
2023-04-16T02:08:26.586Z,7.10
2023-04-16T02:11:09.294Z,7.10
2023-04-16T02:13:51.975Z,7.10
2023-04-16T02:16:34.995Z,7.10
2023-04-16T02:19:40.104Z,7.10
2023-04-16T02:22:24.196Z,7.10
2023-04-16T02:25:07.859Z,7.10
2023-04-16T02:27:51.230Z,7.10
2023-04-16T02:30:48.415Z,7.00
2023-04-16T02:33:32.747Z,7.00
2023-04-16T02:36:18.743Z,7.10
2023-04-16T02:39:01.570Z,7.00
2023-04-16T02:41:43.747Z,7.00
2023-04-16T02:44:26.256Z,7.00
2023-04-16T02:47:08.489Z,7.00
2023-04-16T02:49:50.971Z,7.00
2023-04-16T02:52:35.045Z,6.90
2023-04-16T02:55:17.916Z,7.00
2023-04-16T02:58:00.784Z,6.90
2023-04-16T03:00:43.228Z,6.90
2023-04-16T03:03:25.637Z,6.90
2023-04-16T03:06:08.240Z,6.90
2023-04-16T03:08:50.520Z,6.90
2023-04-16T03:11:32.932Z,6.90
2023-04-16T03:14:15.537Z,6.90
2023-04-16T03:16:58.611Z,6.90
2023-04-16T03:19:40.758Z,6.90
2023-04-16T03:22:23.440Z,6.90
2023-04-16T03:25:06.198Z,6.90
2023-04-16T03:27:48.676Z,6.90
2023-04-16T03:30:32.208Z,6.90
2023-04-16T03:33:14.619Z,7.00
2023-04-16T03:35:57.973Z,6.90
2023-04-16T03:38:42.307Z,6.90
2023-04-16T03:41:24.633Z,6.90
2023-04-16T03:44:07.249Z,6.90
2023-04-16T03:46:49.912Z,6.90
2023-04-16T03:49:32.638Z,6.90
2023-04-16T03:52:15.332Z,6.80
2023-04-16T03:54:58.474Z,6.80
2023-04-16T03:57:43.184Z,6.70
2023-04-16T04:00:29.439Z,6.80
2023-04-16T04:03:20.398Z,6.80
2023-04-16T04:06:09.012Z,6.80
2023-04-16T04:08:51.636Z,6.80
2023-04-16T04:11:34.184Z,6.80
2023-04-16T04:14:16.431Z,6.80
2023-04-16T04:16:59.061Z,6.80
2023-04-16T04:19:47.168Z,6.80
2023-04-16T04:22:37.246Z,6.70
2023-04-16T04:25:19.589Z,6.80
2023-04-16T04:28:02.608Z,6.80
2023-04-16T04:30:44.816Z,6.90
2023-04-16T04:33:28.762Z,6.90
2023-04-16T04:36:11.126Z,6.80
2023-04-16T04:38:53.751Z,6.90
2023-04-16T04:41:36.894Z,6.90
2023-04-16T04:44:19.522Z,7.00
2023-04-16T04:47:01.929Z,7.00
2023-04-16T04:49:45.935Z,7.10
2023-04-16T04:52:28.169Z,7.10
2023-04-16T04:55:10.726Z,7.10
2023-04-16T04:57:53.202Z,7.20
2023-04-16T05:00:37.044Z,7.10
2023-04-16T05:03:22.202Z,7.10
2023-04-16T05:06:04.814Z,7.20
2023-04-16T05:08:46.955Z,7.20
2023-04-16T05:11:30.116Z,7.10
2023-04-16T05:14:12.280Z,7.20
2023-04-16T05:16:54.803Z,7.10
2023-04-16T05:19:37.106Z,7.10
2023-04-16T05:22:19.591Z,7.10
2023-04-16T05:25:01.792Z,7.20
2023-04-16T05:27:44.278Z,7.20
2023-04-16T05:30:26.448Z,7.30
2023-04-16T05:33:08.808Z,7.30
2023-04-16T05:35:51.130Z,7.40
2023-04-16T05:38:33.513Z,7.30
2023-04-16T05:41:15.656Z,7.20
2023-04-16T05:43:58.086Z,7.20
2023-04-16T05:46:40.356Z,7.20
2023-04-16T05:49:23.382Z,7.30
2023-04-16T05:52:05.985Z,7.30
2023-04-16T05:54:48.585Z,7.40
2023-04-16T05:57:31.004Z,7.30
2023-04-16T06:00:13.704Z,7.20
2023-04-16T06:02:56.217Z,7.40
2023-04-16T06:05:38.785Z,7.50
2023-04-16T06:08:20.919Z,7.50
2023-04-16T06:11:03.945Z,7.50
2023-04-16T06:13:46.317Z,7.60
2023-04-16T06:16:28.838Z,7.70
2023-04-16T06:19:11.324Z,7.70
2023-04-16T06:21:54.339Z,7.60
2023-04-16T06:24:36.748Z,7.60
2023-04-16T06:27:19.298Z,7.60
2023-04-16T06:30:01.550Z,7.60
2023-04-16T06:32:44.544Z,7.60
2023-04-16T06:35:26.988Z,7.60
2023-04-16T06:38:09.634Z,7.60
2023-04-16T06:40:52.058Z,7.80
2023-04-16T06:43:34.864Z,7.80
2023-04-16T06:46:17.250Z,7.90
2023-04-16T06:48:59.827Z,8.00
2023-04-16T06:51:42.467Z,8.00
2023-04-16T06:54:25.024Z,8.00
2023-04-16T06:57:07.256Z,8.10
2023-04-16T06:59:49.753Z,8.10
2023-04-16T07:02:32.195Z,8.10
2023-04-16T07:05:14.983Z,8.20
2023-04-16T07:07:57.813Z,8.20
2023-04-16T07:10:40.470Z,8.20
2023-04-16T07:13:22.910Z,8.30
2023-04-16T07:16:05.972Z,8.30
2023-04-16T07:18:48.484Z,8.40
2023-04-16T07:21:31.802Z,8.40
2023-04-16T07:24:14.203Z,8.50
2023-04-16T07:26:56.715Z,8.60
2023-04-16T07:29:39.005Z,8.60
2023-04-16T07:32:22.901Z,8.60
2023-04-16T07:35:05.776Z,8.60
2023-04-16T07:37:48.352Z,8.50
2023-04-16T07:40:30.596Z,8.60
2023-04-16T07:43:15.529Z,8.60
2023-04-16T07:45:57.988Z,8.80
2023-04-16T07:48:41.568Z,8.80
2023-04-16T07:51:24.184Z,8.70
2023-04-16T07:54:06.747Z,8.80
2023-04-16T07:56:49.030Z,8.70
2023-04-16T07:59:32.188Z,8.80
2023-04-16T08:02:17.024Z,8.90
2023-04-16T08:05:00.628Z,8.70
2023-04-16T08:07:43.047Z,8.70
2023-04-16T08:10:25.702Z,8.80
2023-04-16T08:13:07.941Z,8.90
2023-04-16T08:15:50.510Z,8.90
2023-04-16T08:18:32.826Z,8.90
2023-04-16T08:21:15.456Z,9.00
2023-04-16T08:23:58.302Z,8.90
2023-04-16T08:26:41.183Z,8.90
2023-04-16T08:29:26.282Z,9.00
2023-04-16T08:32:10.185Z,9.10
2023-04-16T08:34:52.558Z,9.10
2023-04-16T08:37:34.993Z,9.30
2023-04-16T08:40:17.749Z,9.40
2023-04-16T08:43:02.969Z,9.40
2023-04-16T08:45:47.851Z,9.50
2023-04-16T08:48:34.155Z,9.70
2023-04-16T08:51:18.608Z,9.80
2023-04-16T08:54:08.637Z,10.00
2023-04-16T08:56:51.805Z,10.00
2023-04-16T08:59:34.913Z,10.00
2023-04-16T09:02:17.919Z,10.10
2023-04-16T09:05:01.289Z,10.20
2023-04-16T09:07:45.779Z,10.20
2023-04-16T09:10:28.428Z,10.20
2023-04-16T09:13:11.952Z,10.20
2023-04-16T09:15:57.076Z,10.30
2023-04-16T09:18:39.504Z,10.20
2023-04-16T09:21:24.131Z,10.20
2023-04-16T09:24:07.967Z,10.40
2023-04-16T09:26:52.790Z,10.50
2023-04-16T09:29:42.196Z,10.60
2023-04-16T09:32:29.266Z,10.80
2023-04-16T09:35:11.969Z,11.00
2023-04-16T09:37:58.370Z,11.20
2023-04-16T09:40:40.698Z,11.40
2023-04-16T09:43:23.250Z,11.60
2023-04-16T09:46:08.016Z,11.80
2023-04-16T09:48:51.194Z,11.70
2023-04-16T09:51:38.558Z,11.60
2023-04-16T09:54:21.076Z,11.60
2023-04-16T09:57:06.055Z,11.50
2023-04-16T09:59:53.653Z,11.50
2023-04-16T10:02:41.756Z,11.70
2023-04-16T10:05:26.666Z,11.90
2023-04-16T10:08:13.852Z,12.20
2023-04-16T10:10:57.106Z,12.20
2023-04-16T10:13:39.477Z,12.10
2023-04-16T10:16:24.068Z,11.90
2023-04-16T10:19:06.529Z,11.90
2023-04-16T10:21:49.248Z,11.90
2023-04-16T10:24:33.850Z,12.10
2023-04-16T10:27:17.252Z,12.30
2023-04-16T10:30:00.414Z,12.40
2023-04-16T10:32:43.933Z,12.60
2023-04-16T10:35:26.361Z,12.60
2023-04-16T10:38:28.076Z,12.90
2023-04-16T10:41:10.368Z,12.50
2023-04-16T10:43:53.713Z,12.30
2023-04-16T10:46:41.469Z,12.40
2023-04-16T10:49:25.062Z,12.60
2023-04-16T10:52:10.208Z,12.70
2023-04-16T10:54:53.397Z,12.80
2023-04-16T10:57:36.340Z,12.90
2023-04-16T11:00:24.951Z,13.00
2023-04-16T11:03:07.627Z,13.00
2023-04-16T11:05:51.126Z,12.80
2023-04-16T11:08:35.016Z,12.80
2023-04-16T11:11:19.770Z,12.90
2023-04-16T11:14:05.008Z,13.00
2023-04-16T11:16:48.184Z,13.40
2023-04-16T11:19:30.771Z,13.60
2023-04-16T11:22:17.680Z,13.80
2023-04-16T11:25:00.453Z,13.80
2023-04-16T11:27:42.965Z,13.80
2023-04-16T11:30:36.746Z,13.90
2023-04-16T11:33:19.940Z,13.90
2023-04-16T11:36:02.733Z,14.00
2023-04-16T11:38:45.878Z,14.00
2023-04-16T11:41:28.701Z,14.00
2023-04-16T11:44:37.570Z,14.10
2023-04-16T11:47:20.004Z,14.20
2023-04-16T11:50:21.976Z,14.30
2023-04-16T11:53:06.449Z,14.40
2023-04-16T11:55:49.216Z,14.50
2023-04-16T11:58:31.498Z,14.60
2023-04-16T12:01:21.490Z,14.60
2023-04-16T12:04:04.847Z,14.70
2023-04-16T12:07:06.892Z,14.60
2023-04-16T12:09:49.369Z,14.40
2023-04-16T12:12:32.798Z,14.20
2023-04-16T12:15:15.039Z,14.10
2023-04-16T12:18:08.161Z,13.90
2023-04-16T12:20:53.518Z,13.50
2023-04-16T12:23:35.960Z,13.50
2023-04-16T12:26:18.224Z,13.60
2023-04-16T12:29:16.110Z,13.50
2023-04-16T12:31:58.373Z,13.50
2023-04-16T12:34:51.641Z,13.60
2023-04-16T12:37:35.391Z,13.40
2023-04-16T12:40:17.896Z,13.30
2023-04-16T12:43:00.343Z,13.30
2023-04-16T12:45:42.807Z,13.20
2023-04-16T12:48:25.123Z,13.20
2023-04-16T12:51:07.646Z,13.50
2023-04-16T12:53:50.414Z,13.70
2023-04-16T12:56:33.987Z,13.80
2023-04-16T12:59:17.883Z,13.90
2023-04-16T13:02:02.206Z,14.00
2023-04-16T13:04:44.648Z,13.80
2023-04-16T13:07:28.258Z,13.70
2023-04-16T13:10:11.088Z,13.70
2023-04-16T13:12:53.636Z,13.60
2023-04-16T13:15:36.076Z,13.70
2023-04-16T13:18:18.709Z,13.80
2023-04-16T13:21:01.342Z,14.00
2023-04-16T13:23:43.981Z,14.10
2023-04-16T13:26:27.054Z,14.10
2023-04-16T13:29:10.234Z,14.20
2023-04-16T13:31:53.323Z,14.40
2023-04-16T13:34:35.983Z,14.30
2023-04-16T13:37:18.264Z,14.30
2023-04-16T13:40:00.807Z,14.30
2023-04-16T13:42:43.066Z,14.30
2023-04-16T13:45:26.899Z,14.40
2023-04-16T13:48:10.420Z,14.40
2023-04-16T13:50:53.094Z,14.50
2023-04-16T13:53:35.455Z,14.30
2023-04-16T13:56:18.128Z,14.40
2023-04-16T13:59:00.862Z,14.50
2023-04-16T14:01:43.576Z,14.70
2023-04-16T14:04:25.985Z,14.60
2023-04-16T14:07:08.534Z,14.50
2023-04-16T14:09:50.819Z,14.60
2023-04-16T14:12:34.128Z,14.60
2023-04-16T14:15:16.912Z,14.70
2023-04-16T14:17:59.551Z,14.70
2023-04-16T14:20:41.920Z,14.70
2023-04-16T14:23:24.642Z,14.70
2023-04-16T14:26:07.046Z,14.80
2023-04-16T14:28:51.073Z,14.80
2023-04-16T14:31:33.708Z,14.90
2023-04-16T14:34:16.874Z,15.00
2023-04-16T14:36:59.133Z,15.10
2023-04-16T14:39:41.673Z,15.10
2023-04-16T14:42:24.233Z,15.20
2023-04-16T14:45:07.775Z,15.30
2023-04-16T14:47:50.888Z,15.40
2023-04-16T14:50:37.970Z,15.50
2023-04-16T14:53:20.524Z,15.60
2023-04-16T14:56:03.407Z,15.50
2023-04-16T14:58:45.848Z,15.40
2023-04-16T15:01:28.492Z,15.40
2023-04-16T15:04:10.911Z,15.40
2023-04-16T15:09:37.647Z,15.00
2023-04-16T15:12:20.145Z,14.80
2023-04-16T15:15:02.416Z,14.60
2023-04-16T15:17:45.244Z,14.40
2023-04-16T15:20:27.795Z,14.30
2023-04-16T15:23:10.372Z,14.20
2023-04-16T15:25:52.608Z,14.30
2023-04-16T15:28:35.036Z,14.40
2023-04-16T15:31:17.286Z,14.40
2023-04-16T15:34:00.499Z,14.30
2023-04-16T15:36:42.836Z,14.40
2023-04-16T15:39:25.551Z,14.40
2023-04-16T15:42:09.119Z,14.30
2023-04-16T15:44:51.613Z,14.30
2023-04-16T15:47:33.992Z,14.30
2023-04-16T15:50:18.704Z,14.20
2023-04-16T15:53:01.214Z,14.00
2023-04-16T15:55:45.404Z,13.70
2023-04-16T15:58:27.774Z,13.60
2023-04-16T16:01:10.259Z,13.60
2023-04-16T16:03:52.781Z,13.50
2023-04-16T16:06:38.032Z,13.30
2023-04-16T16:09:26.981Z,13.30
2023-04-16T16:12:09.971Z,13.20
2023-04-16T16:14:52.206Z,13.10
2023-04-16T16:17:35.208Z,12.90
2023-04-16T16:20:18.178Z,12.90
2023-04-16T16:23:01.504Z,12.90
2023-04-16T16:25:43.961Z,12.90
2023-04-16T16:28:27.274Z,12.90
2023-04-16T16:31:10.085Z,12.80
2023-04-16T16:33:53.174Z,12.70
2023-04-16T16:36:37.794Z,12.60
2023-04-16T16:39:24.362Z,12.40
2023-04-16T16:42:09.124Z,12.40
2023-04-16T16:44:52.660Z,12.40
2023-04-16T16:47:36.138Z,12.40
2023-04-16T16:50:18.690Z,12.30
2023-04-16T16:53:01.248Z,12.30
2023-04-16T16:55:44.559Z,12.30
2023-04-16T16:58:27.780Z,12.30
2023-04-16T17:01:10.565Z,12.20
2023-04-16T17:03:53.115Z,12.30
2023-04-16T17:06:35.958Z,12.30
2023-04-16T17:09:18.439Z,12.20
2023-04-16T17:12:01.191Z,12.10
2023-04-16T17:14:43.565Z,12.10
2023-04-16T17:17:28.143Z,12.00
2023-04-16T17:20:12.242Z,11.90
2023-04-16T17:22:54.988Z,11.90
2023-04-16T17:25:37.502Z,11.90
2023-04-16T17:28:21.366Z,11.80
2023-04-16T17:31:03.842Z,11.80
2023-04-16T17:33:46.482Z,11.70
2023-04-16T17:36:28.855Z,11.70
2023-04-16T17:39:11.577Z,11.60
2023-04-16T17:41:57.401Z,11.60
2023-04-16T17:44:39.982Z,11.50
2023-04-16T17:47:22.373Z,11.50
2023-04-16T17:50:05.765Z,11.40
2023-04-16T17:52:48.259Z,11.30
2023-04-16T17:55:31.699Z,11.30
2023-04-16T17:58:14.222Z,11.30
2023-04-16T18:00:56.849Z,11.20
2023-04-16T18:03:40.039Z,11.20
2023-04-16T18:06:23.058Z,11.10
2023-04-16T18:09:05.919Z,11.10
2023-04-16T18:11:48.644Z,11.00
2023-04-16T18:14:31.124Z,11.00
2023-04-16T18:17:14.178Z,11.00
2023-04-16T18:19:56.936Z,10.90
2023-04-16T18:22:39.764Z,10.80
2023-04-16T18:25:32.297Z,10.80
2023-04-16T18:28:18.531Z,10.70
2023-04-16T18:31:05.592Z,10.70
2023-04-16T18:33:57.238Z,10.70
2023-04-16T18:36:41.085Z,10.60
2023-04-16T18:39:24.065Z,10.60
2023-04-16T18:42:06.763Z,10.60
2023-04-16T18:44:54.103Z,10.50
2023-04-16T18:47:36.994Z,10.50
2023-04-16T18:50:19.710Z,10.50
2023-04-16T18:53:02.842Z,10.40
2023-04-16T18:55:45.663Z,10.40
2023-04-16T18:58:28.464Z,10.40
2023-04-16T19:01:13.152Z,10.30
2023-04-16T19:03:56.374Z,10.30
2023-04-16T19:06:40.174Z,10.20
2023-04-16T19:09:22.990Z,10.10
2023-04-16T19:12:05.799Z,10.10
2023-04-16T19:14:48.242Z,10.00
2023-04-16T19:17:31.444Z,10.00
2023-04-16T19:20:15.413Z,10.00
2023-04-16T19:22:58.213Z,9.90
2023-04-16T19:25:40.669Z,9.90
2023-04-16T19:28:27.808Z,9.90
2023-04-16T19:31:10.248Z,9.90
2023-04-16T19:33:52.965Z,9.90
2023-04-16T19:36:35.618Z,9.90
2023-04-16T19:39:18.453Z,9.90
2023-04-16T19:42:02.114Z,9.90
2023-04-16T19:44:44.646Z,9.90
2023-04-16T19:47:27.431Z,9.80
2023-04-16T19:50:10.762Z,9.80
2023-04-16T19:52:53.160Z,9.70
2023-04-16T19:55:36.701Z,9.70
2023-04-16T19:58:19.107Z,9.60
2023-04-16T20:01:01.952Z,9.60
2023-04-16T20:03:44.645Z,9.50
2023-04-16T20:06:27.821Z,9.50
2023-04-16T20:09:10.570Z,9.50
2023-04-16T20:11:53.200Z,9.40
2023-04-16T20:14:35.720Z,9.30
2023-04-16T20:17:19.990Z,9.30
2023-04-16T20:20:08.449Z,9.30
2023-04-16T20:22:51.287Z,9.20
2023-04-16T20:25:33.865Z,9.10
2023-04-16T20:28:18.160Z,9.10
2023-04-16T20:31:00.427Z,9.00
2023-04-16T20:33:43.057Z,9.00
2023-04-16T20:36:26.243Z,8.90
2023-04-16T20:39:09.934Z,8.90
2023-04-16T20:41:57.217Z,8.90
2023-04-16T20:44:42.458Z,8.80
2023-04-16T20:47:24.627Z,8.80
2023-04-16T20:50:07.796Z,8.70
2023-04-16T20:52:50.081Z,8.70
2023-04-16T20:55:32.832Z,8.70
2023-04-16T20:58:14.997Z,8.60
2023-04-16T21:00:57.863Z,8.60
2023-04-16T21:03:40.295Z,8.60
2023-04-16T21:06:22.857Z,8.50
2023-04-16T21:09:06.089Z,8.50
2023-04-16T21:11:48.663Z,8.40
2023-04-16T21:14:31.132Z,8.40
2023-04-16T21:17:13.568Z,8.30
2023-04-16T21:19:55.916Z,8.30
2023-04-16T21:22:38.294Z,8.30
2023-04-16T21:25:20.700Z,8.20
2023-04-16T21:28:03.390Z,8.20
2023-04-16T21:30:45.956Z,8.10
2023-04-16T21:33:28.543Z,8.10
2023-04-16T21:36:11.639Z,8.10
2023-04-16T21:38:54.090Z,8.00
2023-04-16T21:41:36.300Z,7.90
2023-04-16T21:44:18.951Z,7.90
2023-04-16T21:47:01.346Z,7.80
2023-04-16T21:49:44.180Z,7.70
2023-04-16T21:52:26.702Z,7.70
2023-04-16T21:55:09.672Z,7.70
2023-04-16T21:57:52.131Z,7.60
2023-04-16T22:00:35.218Z,7.70
2023-04-16T22:03:18.693Z,7.70
2023-04-16T22:06:01.472Z,7.70
2023-04-16T22:08:44.163Z,7.70
2023-04-16T22:11:26.650Z,7.70
2023-04-16T22:14:08.838Z,7.70
2023-04-16T22:16:52.379Z,7.60
2023-04-16T22:19:37.866Z,7.60
2023-04-16T22:22:21.926Z,7.60
2023-04-16T22:25:04.877Z,7.60
2023-04-16T22:27:47.554Z,7.50
2023-04-16T22:30:29.803Z,7.50
2023-04-16T22:33:12.408Z,7.40
2023-04-16T22:35:54.649Z,7.40
2023-04-16T22:38:38.705Z,7.40
2023-04-16T22:41:21.215Z,7.40
2023-04-16T22:44:04.030Z,7.40
2023-04-16T22:46:47.206Z,7.40
2023-04-16T22:49:33.230Z,7.30
2023-04-16T22:52:15.529Z,7.30
2023-04-16T22:54:58.012Z,7.30
2023-04-16T22:57:40.246Z,7.30
2023-04-16T23:00:22.835Z,7.20
2023-04-16T23:03:05.855Z,7.20
2023-04-16T23:05:49.152Z,7.20
2023-04-16T23:08:31.301Z,7.20
2023-04-16T23:11:14.136Z,7.10
2023-04-16T23:13:56.762Z,7.00
2023-04-16T23:16:39.424Z,7.00
2023-04-16T23:19:21.622Z,6.90
2023-04-16T23:22:04.583Z,6.90
2023-04-16T23:24:48.843Z,6.80
2023-04-16T23:27:32.507Z,6.80
2023-04-16T23:30:14.884Z,6.80
2023-04-16T23:32:57.327Z,6.70
2023-04-16T23:35:39.659Z,6.70
2023-04-16T23:38:22.295Z,6.70
2023-04-16T23:41:05.500Z,6.70
2023-04-16T23:43:47.945Z,6.60
2023-04-16T23:46:30.600Z,6.70
2023-04-16T23:49:13.371Z,6.60
2023-04-16T23:51:56.049Z,6.70
2023-04-16T23:54:38.585Z,6.70
2023-04-16T23:57:20.745Z,6.60
